createdAt,value
2023-01-29T00:00:01.916Z,24.47
2023-01-29T00:02:33.198Z,22.27
2023-01-29T00:07:58.038Z,26.27
2023-01-29T00:10:20.950Z,20.93
2023-01-29T00:10:29.307Z,20.37
2023-01-29T00:13:00.561Z,25.27
2023-01-29T00:15:31.893Z,21.13
2023-01-29T00:18:03.317Z,22.57
2023-01-29T00:20:34.604Z,22.80
2023-01-29T00:23:06.144Z,20.60
2023-01-29T00:25:37.409Z,22.30
2023-01-29T00:28:09.064Z,20.37
2023-01-29T00:30:40.831Z,18.23
2023-01-29T00:33:13.337Z,18.87
2023-01-29T00:35:44.723Z,22.43
2023-01-29T00:38:16.008Z,18.43
2023-01-29T00:41:05.879Z,25.40
2023-01-29T00:43:55.878Z,22.37
2023-01-29T00:46:27.198Z,24.23
2023-01-29T00:49:00.782Z,19.50
2023-01-29T00:51:32.402Z,17.70
2023-01-29T00:54:06.746Z,20.40
2023-01-29T00:56:38.103Z,21.03
2023-01-29T00:59:09.370Z,22.53
2023-01-29T01:02:00.969Z,19.87
2023-01-29T01:04:34.779Z,19.87
2023-01-29T01:07:07.007Z,20.40
2023-01-29T01:09:56.809Z,20.93
2023-01-29T01:12:29.113Z,20.67
2023-01-29T01:15:00.385Z,23.73
2023-01-29T01:17:31.827Z,22.33
2023-01-29T01:20:03.785Z,23.93
2023-01-29T01:22:35.818Z,18.00
2023-01-29T01:25:07.373Z,20.83
2023-01-29T01:27:41.157Z,18.97
2023-01-29T01:30:15.212Z,20.80
2023-01-29T01:32:46.683Z,20.00
2023-01-29T01:35:18.192Z,20.33
2023-01-29T01:37:49.602Z,23.70
2023-01-29T01:40:22.614Z,21.03
2023-01-29T01:42:56.993Z,21.83
2023-01-29T01:45:29.878Z,19.70
2023-01-29T01:48:06.710Z,20.33
2023-01-29T01:50:56.464Z,23.47
2023-01-29T01:54:03.882Z,19.87
2023-01-29T01:56:41.382Z,18.10
2023-01-29T01:59:18.369Z,21.23
2023-01-29T02:01:53.888Z,21.33
2023-01-29T02:04:45.375Z,19.50
2023-01-29T02:07:35.324Z,24.67
2023-01-29T02:10:13.921Z,20.77
2023-01-29T02:12:46.105Z,22.83
2023-01-29T02:15:17.394Z,20.97
2023-01-29T02:17:48.771Z,19.50
2023-01-29T02:20:26.540Z,20.17
2023-01-29T02:22:59.183Z,19.20
2023-01-29T02:26:14.694Z,17.50
2023-01-29T02:28:48.781Z,19.47
2023-01-29T02:31:32.886Z,18.23
2023-01-29T02:34:31.001Z,22.43
2023-01-29T02:37:12.216Z,20.60
2023-01-29T02:39:56.975Z,23.40
2023-01-29T02:42:36.863Z,22.90
2023-01-29T02:45:15.633Z,20.87
2023-01-29T02:48:01.780Z,18.60
2023-01-29T02:50:41.627Z,23.17
2023-01-29T02:53:21.761Z,21.90
2023-01-29T02:56:10.104Z,22.53
2023-01-29T02:58:54.552Z,20.13
2023-01-29T03:01:30.274Z,22.00
2023-01-29T03:04:09.332Z,22.60
2023-01-29T03:06:49.765Z,18.67
2023-01-29T03:09:34.822Z,21.80
2023-01-29T03:12:29.061Z,18.60
2023-01-29T03:15:15.022Z,20.00
2023-01-29T03:17:55.536Z,26.42
2023-01-29T03:20:33.213Z,17.37
2023-01-29T03:23:10.920Z,21.47
2023-01-29T03:26:02.645Z,26.70
2023-01-29T03:28:53.017Z,21.53
2023-01-29T03:31:46.147Z,20.03
2023-01-29T03:34:24.505Z,22.57
2023-01-29T03:37:07.570Z,21.43
2023-01-29T03:39:38.862Z,23.20
2023-01-29T03:42:29.979Z,20.23
2023-01-29T03:45:16.666Z,22.10
2023-01-29T03:48:11.867Z,21.30
2023-01-29T03:50:52.717Z,22.77
2023-01-29T03:53:43.826Z,23.53
2023-01-29T03:56:27.307Z,27.23
2023-01-29T03:59:28.763Z,23.30
2023-01-29T04:02:04.591Z,20.70
2023-01-29T04:04:42.507Z,22.83
2023-01-29T04:07:23.633Z,23.17
2023-01-29T04:09:59.951Z,23.17
2023-01-29T04:12:38.450Z,20.70
2023-01-29T04:15:15.368Z,19.37
2023-01-29T04:17:50.961Z,22.77
2023-01-29T04:20:23.513Z,24.75
2023-01-29T04:22:54.924Z,24.90
2023-01-29T04:25:31.760Z,23.53
2023-01-29T04:28:26.476Z,20.67
2023-01-29T04:31:08.618Z,22.53
2023-01-29T04:33:40.427Z,24.33
2023-01-29T04:36:24.929Z,25.03
2023-01-29T04:39:24.348Z,26.40
2023-01-29T04:42:17.736Z,24.77
2023-01-29T04:45:12.086Z,23.47
2023-01-29T04:48:16.449Z,22.97
2023-01-29T04:51:12.381Z,18.77
2023-01-29T04:54:00.206Z,19.17
2023-01-29T04:56:38.987Z,23.27
2023-01-29T04:59:20.654Z,19.70
2023-01-29T05:01:53.070Z,22.63
2023-01-29T05:04:26.289Z,22.67
2023-01-29T05:07:01.965Z,22.83
2023-01-29T05:09:34.713Z,26.35
2023-01-29T05:12:09.763Z,19.60
2023-01-29T05:14:44.327Z,22.30
2023-01-29T05:17:18.189Z,21.87
2023-01-29T05:19:49.544Z,25.50
2023-01-29T05:22:22.680Z,19.83
2023-01-29T05:24:54.029Z,25.27
2023-01-29T05:27:53.444Z,23.07
2023-01-29T05:30:24.808Z,24.50
2023-01-29T05:32:56.101Z,27.27
2023-01-29T05:35:28.460Z,24.17
2023-01-29T05:37:59.818Z,21.80
2023-01-29T05:40:31.135Z,24.37
2023-01-29T05:43:02.691Z,22.93
2023-01-29T05:45:33.975Z,23.23
2023-01-29T05:48:05.520Z,24.50
2023-01-29T05:50:36.778Z,22.47
2023-01-29T05:53:08.915Z,21.83
2023-01-29T05:55:40.462Z,21.00
2023-01-29T05:58:11.995Z,22.53
2023-01-29T06:00:43.259Z,24.00
2023-01-29T06:03:14.766Z,24.80
2023-01-29T06:05:46.095Z,26.77
2023-01-29T06:08:17.399Z,20.77
2023-01-29T06:10:48.677Z,23.03
2023-01-29T06:13:21.609Z,22.93
2023-01-29T06:15:54.407Z,27.30
2023-01-29T06:18:25.767Z,26.67
2023-01-29T06:21:00.646Z,21.07
2023-01-29T06:23:32.049Z,25.03
2023-01-29T06:26:14.552Z,24.47
2023-01-29T06:28:49.848Z,25.97
2023-01-29T06:31:37.273Z,24.87
2023-01-29T06:34:09.994Z,26.50
2023-01-29T06:36:41.836Z,23.10
2023-01-29T06:39:13.179Z,24.33
2023-01-29T06:41:45.472Z,25.23
2023-01-29T06:44:16.738Z,24.47
2023-01-29T06:46:48.041Z,25.43
2023-01-29T06:49:19.977Z,29.83
2023-01-29T06:51:51.253Z,24.73
2023-01-29T06:54:22.525Z,28.90
2023-01-29T06:56:53.783Z,27.63
2023-01-29T06:59:25.087Z,24.03
2023-01-29T07:01:56.416Z,25.10
2023-01-29T07:04:27.714Z,25.53
2023-01-29T07:06:59.918Z,27.30
2023-01-29T07:09:31.360Z,28.73
2023-01-29T07:12:03.744Z,25.63
2023-01-29T07:14:35.072Z,26.67
2023-01-29T07:17:06.346Z,24.30
2023-01-29T07:19:37.637Z,29.90
2023-01-29T07:22:08.920Z,26.90
2023-01-29T07:24:40.196Z,28.07
2023-01-29T07:27:11.467Z,27.07
2023-01-29T07:29:42.771Z,23.80
2023-01-29T07:32:14.084Z,27.93
2023-01-29T07:34:45.454Z,28.63
2023-01-29T07:37:16.706Z,29.83
2023-01-29T07:39:48.058Z,31.00
2023-01-29T07:42:19.322Z,30.37
2023-01-29T07:44:50.633Z,31.53
2023-01-29T07:47:21.898Z,29.90
2023-01-29T07:49:53.181Z,28.10
2023-01-29T07:52:24.484Z,33.10
2023-01-29T07:54:55.822Z,31.33
2023-01-29T07:57:27.249Z,35.33
2023-01-29T07:59:58.731Z,30.30
2023-01-29T08:02:30.049Z,29.27
2023-01-29T08:05:01.646Z,30.93
2023-01-29T08:07:32.930Z,31.27
2023-01-29T08:10:04.689Z,36.60
2023-01-29T08:12:36.016Z,33.97
2023-01-29T08:15:07.818Z,34.03
2023-01-29T08:17:49.272Z,34.53
2023-01-29T08:20:28.823Z,35.13
2023-01-29T08:23:02.427Z,40.70
2023-01-29T08:25:34.510Z,37.33
2023-01-29T08:28:05.826Z,44.13
2023-01-29T08:30:38.259Z,38.53
2023-01-29T08:33:10.231Z,41.43
2023-01-29T08:35:42.306Z,44.00
2023-01-29T08:38:13.674Z,44.10
2023-01-29T08:40:45.214Z,43.33
2023-01-29T08:43:16.537Z,46.67
2023-01-29T08:45:47.914Z,44.37
2023-01-29T08:48:19.211Z,43.33
2023-01-29T08:50:50.838Z,46.03
2023-01-29T08:53:24.787Z,42.93
2023-01-29T08:55:56.298Z,45.27
2023-01-29T08:58:27.607Z,44.50
2023-01-29T09:01:09.839Z,46.67
2023-01-29T09:03:43.604Z,45.07
2023-01-29T09:06:14.974Z,52.03
2023-01-29T09:08:46.348Z,46.03
2023-01-29T09:11:17.764Z,43.43
2023-01-29T09:13:49.027Z,49.13
2023-01-29T09:16:20.410Z,50.90
2023-01-29T09:18:54.240Z,50.90
2023-01-29T09:21:25.683Z,47.53
2023-01-29T09:23:56.956Z,48.00
2023-01-29T09:26:28.412Z,54.23
2023-01-29T09:28:59.700Z,46.93
2023-01-29T09:31:31.066Z,46.17
2023-01-29T09:34:02.432Z,49.30
2023-01-29T09:36:33.725Z,42.70
2023-01-29T09:39:05.076Z,47.77
2023-01-29T09:41:49.431Z,52.20
2023-01-29T09:44:45.783Z,51.33
2023-01-29T09:47:18.276Z,46.33
2023-01-29T09:50:05.614Z,41.10
2023-01-29T09:52:49.814Z,47.30
2023-01-29T09:55:36.849Z,50.40
2023-01-29T09:58:20.995Z,54.47
2023-01-29T10:01:22.063Z,47.67
2023-01-29T10:04:27.739Z,44.00
2023-01-29T10:07:28.330Z,41.77
2023-01-29T10:10:34.969Z,40.03
2023-01-29T10:13:38.610Z,42.80
2023-01-29T10:16:32.699Z,36.57
2023-01-29T10:19:31.952Z,34.93
2023-01-29T10:22:25.260Z,40.47
2023-01-29T10:25:05.865Z,37.23
2023-01-29T10:27:40.454Z,34.07
2023-01-29T10:30:31.616Z,31.83
2023-01-29T10:33:06.633Z,33.87
2023-01-29T10:35:50.048Z,35.93
2023-01-29T10:38:31.803Z,37.80
2023-01-29T10:41:11.589Z,33.53
2023-01-29T10:44:02.664Z,38.33
2023-01-29T10:47:02.188Z,33.20
2023-01-29T10:50:05.813Z,31.70
2023-01-29T10:52:57.294Z,32.70
2023-01-29T10:55:51.609Z,33.90
2023-01-29T10:58:46.865Z,33.07
2023-01-29T11:01:18.302Z,32.40
2023-01-29T11:03:58.218Z,33.33
2023-01-29T11:06:32.628Z,31.70
2023-01-29T11:09:12.823Z,29.30
2023-01-29T11:12:04.459Z,27.30
2023-01-29T11:14:51.705Z,28.03
2023-01-29T11:17:25.015Z,28.70
2023-01-29T11:19:56.427Z,27.13
2023-01-29T11:22:29.748Z,28.40
2023-01-29T11:25:15.953Z,29.57
2023-01-29T11:27:50.346Z,33.70
2023-01-29T11:30:34.142Z,26.80
2023-01-29T11:33:05.440Z,28.50
2023-01-29T11:35:37.227Z,28.47
2023-01-29T11:38:28.111Z,29.67
2023-01-29T11:41:07.943Z,25.23
2023-01-29T11:43:39.210Z,27.37
2023-01-29T11:46:15.557Z,24.50
2023-01-29T11:48:51.335Z,27.67
2023-01-29T11:51:29.312Z,28.08
2023-01-29T11:54:05.584Z,27.50
2023-01-29T11:59:39.935Z,29.30
2023-01-29T12:02:23.864Z,28.17
2023-01-29T12:05:00.221Z,30.07
2023-01-29T12:10:03.566Z,29.57
2023-01-29T12:12:42.177Z,25.63
2023-01-29T12:15:17.027Z,27.27
2023-01-29T12:17:56.574Z,27.83
2023-01-29T12:20:37.196Z,25.93
2023-01-29T12:23:25.257Z,25.37
2023-01-29T12:26:08.719Z,25.63
2023-01-29T12:28:54.862Z,23.70
2023-01-29T12:31:38.286Z,31.48
2023-01-29T12:34:23.433Z,27.40
2023-01-29T12:37:13.612Z,25.27
2023-01-29T12:39:45.086Z,24.07
2023-01-29T12:42:22.589Z,26.60
2023-01-29T12:45:00.929Z,22.73
2023-01-29T12:47:42.813Z,21.93
2023-01-29T12:50:27.967Z,22.67
2023-01-29T12:53:07.173Z,24.37
2023-01-29T12:55:41.390Z,24.57
2023-01-29T12:58:16.604Z,27.20
2023-01-29T13:00:51.900Z,24.53
2023-01-29T13:03:26.768Z,27.87
2023-01-29T13:06:02.196Z,26.03
2023-01-29T13:08:45.227Z,24.05
2023-01-29T13:11:34.496Z,27.93
2023-01-29T13:14:19.363Z,26.10
2023-01-29T13:16:55.395Z,25.40
2023-01-29T13:19:36.113Z,26.60
2023-01-29T13:22:22.346Z,26.63
2023-01-29T13:25:04.083Z,24.30
2023-01-29T13:27:36.877Z,26.37
2023-01-29T13:30:23.682Z,25.90
2023-01-29T13:33:08.268Z,25.90
2023-01-29T13:35:42.364Z,26.80
2023-01-29T13:38:30.158Z,24.37
2023-01-29T13:41:08.639Z,24.43
2023-01-29T13:43:43.117Z,24.03
2023-01-29T13:46:19.109Z,24.07
2023-01-29T13:48:54.389Z,27.88
2023-01-29T13:51:33.242Z,22.37
2023-01-29T13:54:16.999Z,24.83
2023-01-29T13:57:01.628Z,20.87
2023-01-29T13:59:54.470Z,25.53
2023-01-29T14:02:30.470Z,27.63
2023-01-29T14:05:29.713Z,24.65
2023-01-29T14:08:13.536Z,25.53
2023-01-29T14:10:44.975Z,22.47
2023-01-29T14:13:19.147Z,24.63
2023-01-29T14:15:59.301Z,22.47
2023-01-29T14:18:33.808Z,28.57
2023-01-29T14:21:29.842Z,24.10
2023-01-29T14:24:21.178Z,28.97
2023-01-29T14:26:55.800Z,24.23
2023-01-29T14:29:35.601Z,26.27
2023-01-29T14:32:06.872Z,27.43
2023-01-29T14:34:48.929Z,28.63
2023-01-29T14:37:27.549Z,25.03
2023-01-29T14:40:19.409Z,24.07
2023-01-29T14:43:02.665Z,25.80
2023-01-29T14:45:35.372Z,35.57
2023-01-29T14:48:09.695Z,28.60
2023-01-29T14:50:52.712Z,27.93
2023-01-29T14:53:32.797Z,28.00
2023-01-29T14:56:14.114Z,30.13
2023-01-29T14:58:51.844Z,28.83
2023-01-29T15:01:30.467Z,27.17
2023-01-29T15:04:19.196Z,27.90
2023-01-29T15:06:59.319Z,31.23
2023-01-29T15:09:46.971Z,28.37
2023-01-29T15:12:27.094Z,30.47
2023-01-29T15:15:32.516Z,27.23
2023-01-29T15:18:16.144Z,26.60
2023-01-29T15:20:47.449Z,29.53
2023-01-29T15:23:30.297Z,30.80
2023-01-29T15:26:06.195Z,27.13
2023-01-29T15:28:39.280Z,29.42
2023-01-29T15:31:18.000Z,32.97
2023-01-29T15:33:53.585Z,26.30
2023-01-29T15:36:28.538Z,30.63
2023-01-29T15:39:11.839Z,30.70
2023-01-29T15:41:43.925Z,31.23
2023-01-29T15:44:18.604Z,28.73
2023-01-29T15:46:55.196Z,30.40
2023-01-29T15:49:32.736Z,27.50
2023-01-29T15:52:06.907Z,27.43
2023-01-29T15:54:38.753Z,30.07
2023-01-29T15:57:20.392Z,30.00
2023-01-29T15:59:54.347Z,31.67
2023-01-29T16:02:34.655Z,27.70
2023-01-29T16:05:12.452Z,25.00
2023-01-29T16:07:45.486Z,32.70
2023-01-29T16:10:22.651Z,32.10
2023-01-29T16:12:54.653Z,26.83
2023-01-29T16:15:33.484Z,28.17
2023-01-29T16:18:21.037Z,28.30
2023-01-29T16:20:54.944Z,28.33
2023-01-29T16:23:30.444Z,30.47
2023-01-29T16:26:05.821Z,29.08
2023-01-29T16:28:44.596Z,26.33
2023-01-29T16:31:26.990Z,28.63
2023-01-29T16:34:05.444Z,30.43
2023-01-29T16:36:37.068Z,33.40
2023-01-29T16:39:18.600Z,30.70
2023-01-29T16:42:19.976Z,28.97
2023-01-29T16:45:26.548Z,30.20
2023-01-29T16:48:20.367Z,27.00
2023-01-29T16:51:03.623Z,31.77
2023-01-29T16:53:35.499Z,28.43
2023-01-29T16:56:08.323Z,34.00
2023-01-29T16:58:39.800Z,29.00
2023-01-29T17:01:11.398Z,31.17
2023-01-29T17:03:42.983Z,29.93
2023-01-29T17:06:23.770Z,29.63
2023-01-29T17:08:55.541Z,31.37
2023-01-29T17:11:31.328Z,34.17
2023-01-29T17:14:05.926Z,37.63
2023-01-29T17:16:50.619Z,28.63
2023-01-29T17:19:23.658Z,34.57
2023-01-29T17:21:54.958Z,30.60
2023-01-29T17:24:26.493Z,30.90
2023-01-29T17:26:57.837Z,32.97
2023-01-29T17:29:31.519Z,33.40
2023-01-29T17:32:02.899Z,34.57
2023-01-29T17:34:34.299Z,39.73
2023-01-29T17:37:05.654Z,38.90
2023-01-29T17:39:37.141Z,35.70
2023-01-29T17:42:12.613Z,37.60
2023-01-29T17:44:44.031Z,36.28
2023-01-29T17:47:15.464Z,33.57
2023-01-29T17:49:47.693Z,34.87
2023-01-29T17:52:19.961Z,38.00
2023-01-29T17:54:51.240Z,36.53
2023-01-29T17:57:22.561Z,37.90
2023-01-29T17:59:53.941Z,38.03
2023-01-29T18:02:29.716Z,38.73
2023-01-29T18:05:01.327Z,35.30
2023-01-29T18:07:32.756Z,35.30
2023-01-29T18:10:04.841Z,39.27
2023-01-29T18:12:37.229Z,35.77
2023-01-29T18:15:09.123Z,40.10
2023-01-29T18:17:40.940Z,36.03
2023-01-29T18:20:18.700Z,35.13
2023-01-29T18:22:50.043Z,40.77
2023-01-29T18:25:23.092Z,41.67
2023-01-29T18:27:56.098Z,42.43
2023-01-29T18:30:27.502Z,44.50
2023-01-29T18:32:59.168Z,41.87
2023-01-29T18:35:30.602Z,42.73
2023-01-29T18:38:02.070Z,44.83
2023-01-29T18:40:33.427Z,46.60
2023-01-29T18:43:04.791Z,46.03
2023-01-29T18:45:36.111Z,46.70
2023-01-29T18:48:07.633Z,45.83
2023-01-29T18:50:38.887Z,43.77
2023-01-29T18:53:10.223Z,58.37
2023-01-29T18:55:41.534Z,52.93
2023-01-29T18:58:33.910Z,41.83
2023-01-29T19:01:09.410Z,51.57
2023-01-29T19:03:41.697Z,52.00
2023-01-29T19:06:13.082Z,48.60
2023-01-29T19:08:44.664Z,54.50
2023-01-29T19:11:16.210Z,52.83
2023-01-29T19:13:47.920Z,53.87
2023-01-29T19:16:19.292Z,66.90
2023-01-29T19:18:53.062Z,51.57
2023-01-29T19:21:24.672Z,52.60
2023-01-29T19:23:56.408Z,57.53
2023-01-29T19:26:27.930Z,46.63
2023-01-29T19:29:00.758Z,61.40
2023-01-29T19:31:32.109Z,53.67
2023-01-29T19:34:03.429Z,53.40
2023-01-29T19:36:35.593Z,52.63
2023-01-29T19:39:06.845Z,55.33
2023-01-29T19:41:38.200Z,56.30
2023-01-29T19:44:10.447Z,53.30
2023-01-29T19:46:41.906Z,55.43
2023-01-29T19:49:13.177Z,58.00
2023-01-29T19:51:45.592Z,52.90
2023-01-29T19:54:16.959Z,56.47
2023-01-29T19:56:48.278Z,48.50
2023-01-29T19:59:20.322Z,54.37
2023-01-29T20:01:51.675Z,60.00
2023-01-29T20:04:22.951Z,57.70
2023-01-29T20:06:54.316Z,52.53
2023-01-29T20:09:25.638Z,51.43
2023-01-29T20:11:57.066Z,48.13
2023-01-29T20:14:28.335Z,60.53
2023-01-29T20:16:59.611Z,47.87
2023-01-29T20:19:30.930Z,42.40
2023-01-29T20:22:02.456Z,54.47
2023-01-29T20:24:38.912Z,54.67
2023-01-29T20:29:46.459Z,48.43
2023-01-29T20:32:18.347Z,56.53
2023-01-29T20:34:52.440Z,52.53
2023-01-29T20:37:24.146Z,44.73
2023-01-29T20:39:55.431Z,54.13
2023-01-29T20:42:26.720Z,61.23
2023-01-29T20:44:58.039Z,58.67
2023-01-29T20:47:29.481Z,55.83
2023-01-29T20:50:08.105Z,49.33
2023-01-29T20:52:40.805Z,45.90
2023-01-29T20:55:12.636Z,53.93
2023-01-29T20:57:44.114Z,54.23
2023-01-29T21:00:35.558Z,53.87
2023-01-29T21:03:06.969Z,47.77
2023-01-29T21:05:38.366Z,48.10
2023-01-29T21:08:09.654Z,51.87
2023-01-29T21:10:43.230Z,51.93
2023-01-29T21:13:14.720Z,49.13
2023-01-29T21:15:46.198Z,55.10
2023-01-29T21:18:17.888Z,50.93
2023-01-29T21:20:50.242Z,48.97
2023-01-29T21:23:22.132Z,51.47
2023-01-29T21:25:53.448Z,52.80
2023-01-29T21:28:24.854Z,49.37
2023-01-29T21:31:04.133Z,51.97
2023-01-29T21:33:35.833Z,48.87
2023-01-29T21:36:08.353Z,45.93
2023-01-29T21:38:39.769Z,47.50
2023-01-29T21:41:11.139Z,53.60
2023-01-29T21:43:42.453Z,50.40
2023-01-29T21:46:13.853Z,44.87
2023-01-29T21:48:45.195Z,52.37
2023-01-29T21:51:18.813Z,49.77
2023-01-29T21:53:50.186Z,53.87
2023-01-29T21:56:21.562Z,45.73
2023-01-29T21:58:52.940Z,51.97
2023-01-29T22:01:37.966Z,55.67
2023-01-29T22:04:09.902Z,44.10
2023-01-29T22:06:41.190Z,55.77
2023-01-29T22:09:13.146Z,48.60
2023-01-29T22:11:44.468Z,56.53
2023-01-29T22:14:18.229Z,42.80
2023-01-29T22:16:49.617Z,50.03
2023-01-29T22:19:20.967Z,46.60
2023-01-29T22:21:53.181Z,54.70
2023-01-29T22:24:24.488Z,44.87
2023-01-29T22:26:55.886Z,48.03
2023-01-29T22:29:27.253Z,49.50
2023-01-29T22:31:58.556Z,46.23
2023-01-29T22:34:29.829Z,45.63
2023-01-29T22:37:01.907Z,47.57
2023-01-29T22:39:33.349Z,48.47
2023-01-29T22:42:04.798Z,48.23
2023-01-29T22:44:36.098Z,48.37
2023-01-29T22:47:07.359Z,48.23
2023-01-29T22:49:38.774Z,47.13
2023-01-29T22:52:10.187Z,44.43
2023-01-29T22:54:43.456Z,42.67
2023-01-29T22:57:15.388Z,47.77
2023-01-29T22:59:46.686Z,46.67
2023-01-29T23:02:17.946Z,45.13
2023-01-29T23:04:49.227Z,43.97
2023-01-29T23:07:20.560Z,43.40
2023-01-29T23:09:51.841Z,46.07
2023-01-29T23:12:23.118Z,41.63
2023-01-29T23:14:54.478Z,49.33
2023-01-29T23:17:25.747Z,53.37
2023-01-29T23:19:57.095Z,42.13
2023-01-29T23:22:28.377Z,43.10
2023-01-29T23:25:02.557Z,46.93
2023-01-29T23:27:34.052Z,45.47
2023-01-29T23:30:06.569Z,46.13
2023-01-29T23:32:38.060Z,46.00
2023-01-29T23:35:09.537Z,38.17
2023-01-29T23:37:40.881Z,43.07
2023-01-29T23:40:12.617Z,39.87
2023-01-29T23:42:43.892Z,48.43
2023-01-29T23:45:15.218Z,45.23
2023-01-29T23:47:46.493Z,43.33
2023-01-29T23:50:18.812Z,44.90
2023-01-29T23:52:51.319Z,49.17
2023-01-29T23:55:22.623Z,42.87
2023-01-29T23:57:54.063Z,46.80
